createdAt,value
2022-09-23T00:00:16.673Z,3.05
2022-09-23T00:01:16.727Z,3.01
2022-09-23T00:02:16.659Z,3.03
2022-09-23T00:03:16.575Z,3.01
2022-09-23T00:04:16.618Z,2.98
2022-09-23T00:05:16.557Z,2.90
2022-09-23T00:06:16.565Z,2.87
2022-09-23T00:07:16.546Z,2.87
2022-09-23T00:08:16.551Z,2.87
2022-09-23T00:09:16.517Z,2.86
2022-09-23T00:10:16.567Z,2.90
2022-09-23T00:11:16.501Z,2.93
2022-09-23T00:12:16.474Z,2.87
2022-09-23T00:13:16.465Z,2.83
2022-09-23T00:14:16.497Z,2.79
2022-09-23T00:15:16.461Z,2.77
2022-09-23T00:16:16.504Z,2.83
2022-09-23T00:17:16.417Z,2.89
2022-09-23T00:18:16.445Z,2.97
2022-09-23T00:19:16.439Z,3.00
2022-09-23T00:20:16.392Z,2.97
2022-09-23T00:21:16.389Z,2.92
2022-09-23T00:22:16.372Z,2.92
2022-09-23T00:23:16.363Z,2.87
2022-09-23T00:24:16.429Z,2.89
2022-09-23T00:25:16.345Z,2.86
2022-09-23T00:26:16.330Z,2.86
2022-09-23T00:27:16.333Z,2.85
2022-09-23T00:28:16.320Z,2.83
2022-09-23T00:29:16.332Z,2.79
2022-09-23T00:30:16.291Z,2.77
2022-09-23T00:31:16.351Z,2.77
2022-09-23T00:32:16.282Z,2.69
2022-09-23T00:33:16.259Z,2.67
2022-09-23T00:34:16.395Z,2.68
2022-09-23T00:35:16.215Z,2.74
2022-09-23T00:36:16.216Z,2.69
2022-09-23T00:37:16.194Z,2.68
2022-09-23T00:38:16.195Z,2.67
2022-09-23T00:39:16.191Z,2.65
2022-09-23T00:40:16.285Z,2.64
2022-09-23T00:41:16.208Z,2.62
2022-09-23T00:42:16.178Z,2.61
2022-09-23T00:43:16.164Z,2.62
2022-09-23T00:44:16.139Z,2.61
2022-09-23T00:45:16.170Z,2.60
2022-09-23T00:46:16.162Z,2.61
2022-09-23T00:47:16.078Z,2.64
2022-09-23T00:48:16.116Z,2.62
2022-09-23T00:49:16.127Z,2.61
2022-09-23T00:50:16.049Z,2.62
2022-09-23T00:51:16.057Z,2.60
2022-09-23T00:52:16.044Z,2.57
2022-09-23T00:53:16.030Z,2.53
2022-09-23T00:54:16.069Z,2.46
2022-09-23T00:55:16.008Z,2.46
2022-09-23T00:56:16.000Z,2.44
2022-09-23T00:57:15.971Z,2.47
2022-09-23T00:58:15.983Z,2.49
2022-09-23T00:59:15.993Z,2.54
2022-09-23T01:00:15.957Z,2.60
2022-09-23T01:01:15.990Z,2.57
2022-09-23T01:02:15.969Z,2.54
2022-09-23T01:03:15.911Z,2.54
2022-09-23T01:04:15.941Z,2.53
2022-09-23T01:05:15.886Z,2.53
2022-09-23T01:06:15.855Z,2.56
2022-09-23T01:07:15.850Z,2.64
2022-09-23T01:08:15.836Z,2.61
2022-09-23T01:09:15.859Z,2.57
2022-09-23T01:10:15.893Z,2.61
2022-09-23T01:11:15.850Z,2.62
2022-09-23T01:12:15.814Z,2.65
2022-09-23T01:13:15.800Z,2.68
2022-09-23T01:14:15.813Z,2.69
2022-09-23T01:15:15.820Z,2.69
2022-09-23T01:16:15.828Z,2.65
2022-09-23T01:17:15.743Z,2.56
2022-09-23T01:18:15.744Z,2.51
2022-09-23T01:19:15.762Z,2.42
2022-09-23T01:20:15.714Z,2.35
2022-09-23T01:21:15.712Z,2.33
2022-09-23T01:22:15.699Z,2.38
2022-09-23T01:23:15.701Z,2.39
2022-09-23T01:24:15.746Z,2.46
2022-09-23T01:25:15.652Z,2.43
2022-09-23T01:26:15.663Z,2.44
2022-09-23T01:27:15.628Z,2.42
2022-09-23T01:28:15.636Z,2.39
2022-09-23T01:29:15.656Z,2.29
2022-09-23T01:30:15.658Z,2.29
2022-09-23T01:31:15.645Z,2.29
2022-09-23T01:32:15.601Z,2.31
2022-09-23T01:33:15.583Z,2.33
2022-09-23T01:34:15.587Z,2.33
2022-09-23T01:35:15.593Z,2.31
2022-09-23T01:36:15.541Z,2.31
2022-09-23T01:37:15.502Z,2.29
2022-09-23T01:38:15.517Z,2.26
2022-09-23T01:39:15.522Z,2.25
2022-09-23T01:40:15.579Z,2.26
2022-09-23T01:41:15.487Z,2.26
2022-09-23T01:42:15.479Z,2.26
2022-09-23T01:43:15.458Z,2.25
2022-09-23T01:44:15.486Z,2.13
2022-09-23T01:45:15.455Z,2.04
2022-09-23T01:46:15.428Z,2.02
2022-09-23T01:47:15.430Z,2.02
2022-09-23T01:48:15.532Z,2.08
2022-09-23T01:49:15.416Z,2.17
2022-09-23T01:50:15.368Z,2.20
2022-09-23T01:51:15.384Z,2.22
2022-09-23T01:52:15.357Z,2.15
2022-09-23T01:53:15.348Z,2.15
2022-09-23T01:54:15.387Z,2.22
2022-09-23T01:55:15.339Z,2.26
2022-09-23T01:56:15.321Z,2.24
2022-09-23T01:57:15.293Z,2.18
2022-09-23T01:58:15.303Z,2.18
2022-09-23T01:59:15.323Z,2.15
2022-09-23T02:00:15.279Z,2.11
2022-09-23T02:01:15.320Z,2.08
2022-09-23T02:02:15.416Z,1.95
2022-09-23T02:03:15.237Z,1.89
2022-09-23T02:04:15.271Z,1.88
2022-09-23T02:05:15.216Z,1.85
2022-09-23T02:06:15.202Z,1.81
2022-09-23T02:07:15.214Z,1.78
2022-09-23T02:08:15.173Z,1.76
2022-09-23T02:09:15.196Z,1.77
2022-09-23T02:10:15.152Z,1.80
2022-09-23T02:11:15.137Z,1.85
2022-09-23T02:12:15.136Z,1.88
2022-09-23T02:13:15.137Z,1.89
2022-09-23T02:14:15.151Z,1.97
2022-09-23T02:15:15.106Z,2.00
2022-09-23T02:16:15.179Z,2.02
2022-09-23T02:17:15.085Z,2.00
2022-09-23T02:18:15.075Z,1.97
2022-09-23T02:19:15.114Z,1.92
2022-09-23T02:20:15.052Z,1.88
2022-09-23T02:21:15.029Z,1.85
2022-09-23T02:22:15.023Z,1.80
2022-09-23T02:23:15.028Z,1.76
2022-09-23T02:24:15.041Z,1.73
2022-09-23T02:25:14.991Z,1.67
2022-09-23T02:26:14.976Z,1.63
2022-09-23T02:27:14.973Z,1.67
2022-09-23T02:28:14.965Z,1.71
2022-09-23T02:29:14.976Z,1.76
2022-09-23T02:30:14.938Z,1.78
2022-09-23T02:31:14.931Z,1.81
2022-09-23T02:32:15.021Z,1.84
2022-09-23T02:33:14.893Z,1.88
2022-09-23T02:34:14.906Z,1.85
2022-09-23T02:35:14.917Z,1.84
2022-09-23T02:36:14.879Z,1.84
2022-09-23T02:37:14.843Z,1.78
2022-09-23T02:38:14.838Z,1.68
2022-09-23T02:39:14.812Z,1.63
2022-09-23T02:40:14.905Z,1.70
2022-09-23T02:41:14.777Z,1.81
2022-09-23T02:42:14.788Z,1.84
2022-09-23T02:43:14.798Z,1.80
2022-09-23T02:44:14.783Z,1.77
2022-09-23T02:45:14.797Z,1.76
2022-09-23T02:46:14.782Z,1.74
2022-09-23T02:47:14.730Z,1.66
2022-09-23T02:48:14.731Z,1.62
2022-09-23T02:49:14.716Z,1.59
2022-09-23T02:50:14.762Z,1.60
2022-09-23T02:51:14.701Z,1.66
2022-09-23T02:52:14.698Z,1.70
2022-09-23T02:53:14.679Z,1.71
2022-09-23T02:54:14.684Z,1.70
2022-09-23T02:55:14.690Z,1.68
2022-09-23T02:56:14.636Z,1.68
2022-09-23T02:57:14.641Z,1.73
2022-09-23T02:58:14.616Z,1.71
2022-09-23T02:59:14.617Z,1.71
2022-09-23T03:00:14.646Z,1.71
2022-09-23T03:01:14.706Z,1.70
2022-09-23T03:02:14.637Z,1.67
2022-09-23T03:03:14.570Z,1.60
2022-09-23T03:04:14.569Z,1.59
2022-09-23T03:05:14.583Z,1.52
2022-09-23T03:06:14.551Z,1.55
2022-09-23T03:07:14.516Z,1.62
2022-09-23T03:08:14.518Z,1.66
2022-09-23T03:09:14.533Z,1.68
2022-09-23T03:10:14.499Z,1.68
2022-09-23T03:11:14.450Z,1.68
2022-09-23T03:12:14.453Z,1.68
2022-09-23T03:13:14.434Z,1.67
2022-09-23T03:14:14.487Z,1.63
2022-09-23T03:15:14.425Z,1.58
2022-09-23T03:16:14.467Z,1.56
2022-09-23T03:17:14.421Z,1.59
2022-09-23T03:18:14.393Z,1.62
2022-09-23T03:19:14.418Z,1.63
2022-09-23T03:20:14.351Z,1.66
2022-09-23T03:21:14.354Z,1.63
2022-09-23T03:22:14.344Z,1.67
2022-09-23T03:23:14.337Z,1.63
2022-09-23T03:24:14.365Z,1.60
2022-09-23T03:25:14.319Z,1.58
2022-09-23T03:26:14.282Z,1.50
2022-09-23T03:27:14.300Z,1.45
2022-09-23T03:28:14.272Z,1.41
2022-09-23T03:29:14.307Z,1.40
2022-09-23T03:30:14.252Z,1.37
2022-09-23T03:31:14.350Z,1.35
2022-09-23T03:32:14.243Z,1.28
2022-09-23T03:33:14.210Z,1.26
2022-09-23T03:34:14.263Z,1.30
2022-09-23T03:35:14.206Z,1.35
2022-09-23T03:36:14.187Z,1.48
2022-09-23T03:37:14.190Z,1.58
2022-09-23T03:38:14.178Z,1.49
2022-09-23T03:39:14.251Z,1.48
2022-09-23T03:40:14.194Z,1.55
2022-09-23T03:41:14.121Z,1.53
2022-09-23T03:42:14.112Z,1.55
2022-09-23T03:43:14.099Z,1.49
2022-09-23T03:44:14.097Z,1.48
2022-09-23T03:45:14.121Z,1.45
2022-09-23T03:46:14.093Z,1.41
2022-09-23T03:47:14.072Z,1.44
2022-09-23T03:48:14.041Z,1.41
2022-09-23T03:49:14.088Z,1.40
2022-09-23T03:50:14.037Z,1.35
2022-09-23T03:51:14.015Z,1.40
2022-09-23T03:52:14.026Z,1.48
2022-09-23T03:53:14.007Z,1.44
2022-09-23T03:54:14.015Z,1.40
2022-09-23T03:55:13.972Z,1.24
2022-09-23T03:56:13.976Z,1.24
2022-09-23T03:57:13.951Z,1.23
2022-09-23T03:58:13.957Z,1.23
2022-09-23T03:59:13.941Z,1.24
2022-09-23T04:00:13.964Z,1.26
2022-09-23T04:01:13.947Z,1.20
2022-09-23T04:02:13.932Z,1.13
2022-09-23T04:03:13.896Z,1.10
2022-09-23T04:04:13.899Z,1.01
2022-09-23T04:05:13.878Z,0.95
2022-09-23T04:06:13.841Z,0.98
2022-09-23T04:07:13.852Z,0.98
2022-09-23T04:08:13.848Z,1.01
2022-09-23T04:09:13.864Z,1.06
2022-09-23T04:10:13.840Z,1.10
2022-09-23T04:11:13.796Z,1.06
2022-09-23T04:12:13.791Z,1.02
2022-09-23T04:13:13.758Z,0.96
2022-09-23T04:14:13.749Z,0.99
2022-09-23T04:15:13.774Z,1.16
2022-09-23T04:16:13.764Z,1.35
2022-09-23T04:17:13.742Z,1.41
2022-09-23T04:18:13.700Z,1.34
2022-09-23T04:19:13.896Z,1.32
2022-09-23T04:20:13.689Z,1.31
2022-09-23T04:21:13.698Z,1.34
2022-09-23T04:22:13.672Z,1.37
2022-09-23T04:23:13.669Z,1.40
2022-09-23T04:24:13.648Z,1.44
2022-09-23T04:25:13.714Z,1.49
2022-09-23T04:26:13.649Z,1.55
2022-09-23T04:27:13.611Z,1.60
2022-09-23T04:28:13.607Z,1.66
2022-09-23T04:29:13.609Z,1.68
2022-09-23T04:30:13.627Z,1.73
2022-09-23T04:31:13.632Z,1.73
2022-09-23T04:32:14.539Z,1.76
2022-09-23T04:33:13.566Z,1.74
2022-09-23T04:34:13.581Z,1.71
2022-09-23T04:35:13.540Z,1.68
2022-09-23T04:36:13.517Z,1.71
2022-09-23T04:37:13.520Z,1.73
2022-09-23T04:38:13.504Z,1.70
2022-09-23T04:39:13.526Z,1.67
2022-09-23T04:40:13.535Z,1.71
2022-09-23T04:41:13.455Z,1.77
2022-09-23T04:42:13.448Z,1.78
2022-09-23T04:43:13.687Z,1.76
2022-09-23T04:44:13.460Z,1.68
2022-09-23T04:45:13.407Z,1.62
2022-09-23T04:46:13.424Z,1.58
2022-09-23T04:47:13.405Z,1.52
2022-09-23T04:48:13.398Z,1.50
2022-09-23T04:49:13.420Z,1.49
2022-09-23T04:50:13.350Z,1.50
2022-09-23T04:51:13.358Z,1.50
2022-09-23T04:52:13.334Z,1.52
2022-09-23T04:53:13.336Z,1.52
2022-09-23T04:54:13.363Z,1.55
2022-09-23T04:55:13.322Z,1.62
2022-09-23T04:56:13.285Z,1.67
2022-09-23T04:57:13.273Z,1.68
2022-09-23T04:58:13.270Z,1.73
2022-09-23T04:59:13.308Z,1.74
2022-09-23T05:00:13.256Z,1.73
2022-09-23T05:01:13.428Z,1.73
2022-09-23T05:02:13.292Z,1.73
2022-09-23T05:03:13.216Z,1.68
2022-09-23T05:04:13.237Z,1.62
2022-09-23T05:05:13.206Z,1.58
2022-09-23T05:06:13.176Z,1.62
2022-09-23T05:07:13.174Z,1.76
2022-09-23T05:08:13.148Z,1.87
2022-09-23T05:09:13.184Z,1.99
2022-09-23T05:10:13.144Z,2.10
2022-09-23T05:11:13.186Z,2.11
2022-09-23T05:12:13.122Z,2.15
2022-09-23T05:13:13.114Z,2.17
2022-09-23T05:14:13.121Z,2.17
2022-09-23T05:15:13.083Z,2.24
2022-09-23T05:16:13.060Z,2.29
2022-09-23T05:17:13.070Z,2.32
2022-09-23T05:18:13.035Z,2.31
2022-09-23T05:19:13.078Z,2.26
2022-09-23T05:20:13.030Z,2.24
2022-09-23T05:21:13.026Z,2.22
2022-09-23T05:22:12.999Z,2.25
2022-09-23T05:23:12.976Z,2.28
2022-09-23T05:24:13.017Z,2.28
2022-09-23T05:25:12.976Z,2.31
2022-09-23T05:26:12.947Z,2.29
2022-09-23T05:27:12.961Z,2.35
2022-09-23T05:28:12.946Z,2.42
2022-09-23T05:29:12.951Z,2.46
2022-09-23T05:30:12.965Z,2.50
2022-09-23T05:31:18.710Z,2.56
2022-09-23T05:32:13.886Z,2.64
2022-09-23T05:33:12.891Z,2.74
2022-09-23T05:34:12.904Z,2.79
2022-09-23T05:35:12.857Z,2.82
2022-09-23T05:36:12.851Z,2.82
2022-09-23T05:37:12.835Z,2.79
2022-09-23T05:38:12.848Z,2.83
2022-09-23T05:39:12.866Z,2.90
2022-09-23T05:40:12.844Z,2.97
2022-09-23T05:41:12.802Z,3.04
2022-09-23T05:42:12.772Z,3.16
2022-09-23T05:43:12.770Z,3.29
2022-09-23T05:44:12.795Z,3.36
2022-09-23T05:45:12.752Z,3.41
2022-09-23T05:46:12.824Z,3.51
2022-09-23T05:47:12.717Z,3.60
2022-09-23T05:48:12.713Z,3.68
2022-09-23T05:49:12.797Z,3.73
2022-09-23T05:50:12.692Z,3.81
2022-09-23T05:51:12.695Z,3.88
2022-09-23T05:52:12.668Z,3.98
2022-09-23T05:53:12.667Z,4.06
2022-09-23T05:54:12.681Z,4.08
2022-09-23T05:55:12.636Z,4.16
2022-09-23T05:56:12.640Z,4.22
2022-09-23T05:57:12.626Z,4.31
2022-09-23T05:58:12.588Z,4.42
2022-09-23T05:59:12.618Z,4.52
2022-09-23T06:00:12.569Z,4.59
2022-09-23T06:01:12.548Z,4.66
2022-09-23T06:02:12.596Z,4.73
2022-09-23T06:03:12.585Z,4.78
2022-09-23T06:04:12.568Z,4.90
2022-09-23T06:05:12.530Z,4.97
2022-09-23T06:06:12.521Z,5.10
2022-09-23T06:07:12.497Z,5.25
2022-09-23T06:08:12.490Z,5.43
2022-09-23T06:09:12.507Z,5.66
2022-09-23T06:10:12.449Z,6.01
2022-09-23T06:11:12.457Z,6.36
2022-09-23T06:12:12.436Z,6.74
2022-09-23T06:13:12.449Z,7.13
2022-09-23T06:14:12.466Z,7.35
2022-09-23T06:15:12.429Z,7.57
2022-09-23T06:16:12.460Z,7.83
2022-09-23T06:17:12.385Z,7.97
2022-09-23T06:18:12.362Z,8.01
2022-09-23T06:19:12.386Z,7.94
2022-09-23T06:20:12.335Z,7.90
2022-09-23T06:21:12.359Z,7.98
2022-09-23T06:22:12.339Z,8.18
2022-09-23T06:23:12.315Z,8.38
2022-09-23T06:24:17.961Z,8.55
2022-09-23T06:25:13.308Z,8.67
2022-09-23T06:26:12.295Z,8.87
2022-09-23T06:27:12.279Z,8.97
2022-09-23T06:28:12.258Z,9.06
2022-09-23T06:29:12.297Z,9.23
2022-09-23T06:30:12.240Z,9.43
2022-09-23T06:31:13.623Z,9.72
2022-09-23T06:32:12.202Z,9.84
2022-09-23T06:33:12.201Z,9.99
2022-09-23T06:34:13.717Z,10.19
2022-09-23T06:35:22.995Z,10.38
2022-09-23T06:36:16.031Z,10.54
2022-09-23T06:37:19.747Z,10.44
2022-09-23T06:38:13.140Z,10.48
2022-09-23T06:39:12.201Z,10.48
2022-09-23T06:40:12.177Z,10.57
2022-09-23T06:41:12.114Z,10.63
2022-09-23T06:42:12.127Z,10.54
2022-09-23T06:43:12.109Z,10.46
2022-09-23T06:44:12.074Z,10.68
2022-09-23T06:45:12.110Z,10.76
2022-09-23T06:46:12.086Z,10.68
2022-09-23T06:47:12.035Z,10.90
2022-09-23T06:48:12.036Z,11.12
2022-09-23T06:49:12.049Z,11.23
2022-09-23T06:50:12.011Z,11.19
2022-09-23T06:51:11.993Z,11.10
2022-09-23T06:52:12.089Z,11.36
2022-09-23T06:53:11.980Z,11.12
2022-09-23T06:54:11.998Z,11.11
2022-09-23T06:55:11.968Z,11.33
2022-09-23T06:56:11.944Z,11.50
2022-09-23T06:57:11.938Z,11.83
2022-09-23T06:58:11.932Z,11.78
2022-09-23T06:59:11.958Z,11.81
2022-09-23T07:00:11.908Z,11.75
2022-09-23T07:01:11.952Z,11.84
2022-09-23T07:02:12.011Z,11.87
2022-09-23T07:03:11.878Z,12.12
2022-09-23T07:04:11.881Z,12.35
2022-09-23T07:05:11.859Z,12.13
2022-09-23T07:06:11.858Z,12.29
2022-09-23T07:07:11.818Z,12.12
2022-09-23T07:08:11.822Z,12.04
2022-09-23T07:09:11.841Z,12.39
2022-09-23T07:10:11.787Z,12.58
2022-09-23T07:11:11.787Z,12.67
2022-09-23T07:12:11.766Z,12.58
2022-09-23T07:13:16.061Z,12.73
2022-09-23T07:14:11.805Z,12.67
2022-09-23T07:15:11.757Z,12.83
2022-09-23T07:16:11.794Z,13.13
2022-09-23T07:17:11.711Z,13.41
2022-09-23T07:18:11.710Z,13.53
2022-09-23T07:19:11.736Z,13.38
2022-09-23T07:20:11.668Z,13.57
2022-09-23T07:21:11.649Z,13.83
2022-09-23T07:22:11.642Z,14.00
2022-09-23T07:23:11.652Z,13.93
2022-09-23T07:24:11.693Z,14.00
2022-09-23T07:25:11.631Z,14.14
2022-09-23T07:26:11.629Z,14.40
2022-09-23T07:27:11.611Z,14.53
2022-09-23T07:28:11.600Z,14.43
2022-09-23T07:29:11.603Z,14.40
2022-09-23T07:30:22.619Z,14.11
2022-09-23T07:31:12.731Z,14.44
2022-09-23T07:32:14.254Z,14.73
2022-09-23T07:33:26.552Z,15.04
2022-09-23T07:34:12.581Z,15.31
2022-09-23T07:35:11.509Z,15.57
2022-09-23T07:36:11.498Z,15.68
2022-09-23T07:37:11.504Z,15.15
2022-09-23T07:38:11.487Z,14.72
2022-09-23T07:39:11.482Z,14.89
2022-09-23T07:40:11.549Z,15.11
2022-09-23T07:41:11.430Z,15.31
2022-09-23T07:42:11.428Z,15.49
2022-09-23T07:43:11.414Z,15.58
2022-09-23T07:44:11.456Z,15.67
2022-09-23T07:45:11.413Z,15.91
2022-09-23T07:46:11.420Z,16.10
2022-09-23T07:47:11.366Z,16.08
2022-09-23T07:48:11.365Z,16.08
2022-09-23T07:49:11.387Z,16.04
2022-09-23T07:50:11.345Z,15.91
2022-09-23T07:51:11.313Z,15.90
2022-09-23T07:52:11.305Z,16.20
2022-09-23T07:53:11.274Z,16.04
2022-09-23T07:54:11.324Z,16.16
2022-09-23T07:55:11.276Z,16.20
2022-09-23T07:56:11.280Z,16.23
2022-09-23T07:57:11.265Z,16.53
2022-09-23T07:58:11.242Z,16.26
2022-09-23T07:59:11.262Z,16.02
2022-09-23T08:00:11.237Z,16.35
2022-09-23T08:01:11.254Z,16.74
2022-09-23T08:02:11.234Z,17.05
2022-09-23T08:03:11.212Z,17.44
2022-09-23T08:04:11.236Z,17.51
2022-09-23T08:05:11.173Z,17.71
2022-09-23T08:06:11.207Z,17.57
2022-09-23T08:07:11.151Z,17.54
2022-09-23T08:08:11.145Z,17.33
2022-09-23T08:09:11.202Z,17.02
2022-09-23T08:10:11.124Z,17.29
2022-09-23T08:11:11.110Z,17.63
2022-09-23T08:12:15.314Z,17.33
2022-09-23T08:13:12.085Z,17.42
2022-09-23T08:14:11.101Z,16.76
2022-09-23T08:15:11.054Z,16.54
2022-09-23T08:16:11.092Z,16.61
2022-09-23T08:17:11.023Z,17.08
2022-09-23T08:18:11.034Z,17.06
2022-09-23T08:19:11.040Z,17.22
2022-09-23T08:20:11.018Z,17.24
2022-09-23T08:21:11.006Z,17.67
2022-09-23T08:22:10.960Z,17.59
2022-09-23T08:23:10.949Z,17.89
2022-09-23T08:24:10.974Z,18.04
2022-09-23T08:25:10.933Z,18.10
2022-09-23T08:26:18.266Z,18.53
2022-09-23T08:27:11.927Z,18.63
2022-09-23T08:28:10.897Z,18.81
2022-09-23T08:29:10.924Z,18.83
2022-09-23T08:30:10.870Z,19.02
2022-09-23T08:31:10.922Z,18.99
2022-09-23T08:32:10.883Z,19.39
2022-09-23T08:33:10.842Z,19.52
2022-09-23T08:34:10.887Z,19.56
2022-09-23T08:35:10.824Z,20.00
2022-09-23T08:36:10.834Z,19.85
2022-09-23T08:37:10.805Z,18.98
2022-09-23T08:38:10.798Z,19.34
2022-09-23T08:39:10.772Z,19.77
2022-09-23T08:40:10.899Z,20.18
2022-09-23T08:41:10.781Z,20.31
2022-09-23T08:42:10.754Z,20.28
2022-09-23T08:43:10.735Z,20.66
2022-09-23T08:44:10.753Z,20.88
2022-09-23T08:45:10.705Z,21.03
2022-09-23T08:46:10.737Z,21.20
2022-09-23T08:47:10.699Z,20.59
2022-09-23T08:48:12.988Z,20.47
2022-09-23T08:49:10.691Z,20.02
2022-09-23T08:50:10.690Z,19.54
2022-09-23T08:51:10.613Z,19.99
2022-09-23T08:52:10.636Z,20.43
2022-09-23T08:53:10.609Z,20.51
2022-09-23T08:54:10.627Z,20.88
2022-09-23T08:55:10.587Z,21.06
2022-09-23T08:56:10.573Z,20.39
2022-09-23T08:57:10.613Z,20.63
2022-09-23T08:58:26.627Z,20.78
2022-09-23T08:59:11.584Z,21.06
2022-09-23T09:00:10.519Z,20.18
2022-09-23T09:01:10.583Z,20.36
2022-09-23T09:02:10.583Z,20.58
2022-09-23T09:03:10.480Z,20.93
2022-09-23T09:04:12.596Z,20.70
2022-09-23T09:05:10.483Z,21.21
2022-09-23T09:06:10.470Z,21.72
2022-09-23T09:07:36.278Z,21.93
2022-09-23T09:08:11.433Z,21.70
2022-09-23T09:09:10.529Z,21.50
2022-09-23T09:10:10.452Z,21.36
2022-09-23T09:11:10.417Z,21.18
2022-09-23T09:12:10.427Z,21.66
2022-09-23T09:13:10.419Z,22.08
2022-09-23T09:14:10.447Z,22.25
2022-09-23T09:15:10.354Z,22.28
2022-09-23T09:16:10.524Z,22.44
2022-09-23T09:17:10.372Z,21.70
2022-09-23T09:18:10.341Z,21.83
2022-09-23T09:19:10.393Z,21.67
2022-09-23T09:20:10.335Z,21.51
2022-09-23T09:21:10.294Z,21.51
2022-09-23T09:22:10.315Z,21.85
2022-09-23T09:23:10.284Z,22.06
2022-09-23T09:24:10.369Z,22.36
2022-09-23T09:25:10.253Z,22.75
2022-09-23T09:26:10.244Z,22.66
2022-09-23T09:27:10.220Z,22.63
2022-09-23T09:28:10.264Z,22.47
2022-09-23T09:29:30.747Z,22.14
2022-09-23T09:30:11.229Z,21.93
2022-09-23T09:31:10.231Z,21.85
2022-09-23T09:32:10.192Z,21.98
2022-09-23T09:33:10.191Z,22.35
2022-09-23T09:34:10.208Z,22.66
2022-09-23T09:35:10.214Z,22.94
2022-09-23T09:36:10.144Z,23.02
2022-09-23T09:37:10.135Z,23.41
2022-09-23T09:38:10.145Z,23.48
2022-09-23T09:39:10.142Z,23.78
2022-09-23T09:40:10.163Z,23.59
2022-09-23T09:41:10.081Z,23.43
2022-09-23T09:42:10.088Z,23.12
2022-09-23T09:43:10.056Z,23.09
2022-09-23T09:44:10.139Z,22.80
2022-09-23T09:45:10.036Z,23.23
2022-09-23T09:46:10.090Z,23.20
2022-09-23T09:47:10.004Z,23.34
2022-09-23T09:48:10.026Z,23.51
2022-09-23T09:49:10.102Z,23.98
2022-09-23T09:50:10.017Z,24.23
2022-09-23T09:51:09.947Z,24.57
2022-09-23T09:52:09.970Z,24.42
2022-09-23T09:53:09.908Z,24.35
2022-09-23T09:54:09.904Z,22.87
2022-09-23T09:55:09.878Z,23.18
2022-09-23T09:56:09.841Z,23.24
2022-09-23T09:57:09.853Z,23.15
2022-09-23T09:58:09.837Z,23.28
2022-09-23T09:59:09.898Z,22.57
2022-09-23T10:00:09.822Z,22.60
2022-09-23T10:01:09.831Z,23.02
2022-09-23T10:02:09.817Z,23.76
2022-09-23T10:03:09.764Z,24.28
2022-09-23T10:04:09.850Z,24.57
2022-09-23T10:05:09.755Z,24.16
2022-09-23T10:06:09.762Z,23.93
2022-09-23T10:07:09.758Z,24.03
2022-09-23T10:08:09.723Z,24.50
2022-09-23T10:09:09.782Z,24.54
2022-09-23T10:10:22.272Z,24.66
2022-09-23T10:11:10.716Z,24.84
2022-09-23T10:12:09.676Z,24.86
2022-09-23T10:13:09.684Z,24.57
2022-09-23T10:14:09.710Z,24.76
2022-09-23T10:15:09.663Z,24.89
2022-09-23T10:16:09.629Z,24.77
2022-09-23T10:17:09.607Z,24.85
2022-09-23T10:18:09.637Z,25.01
2022-09-23T10:19:09.635Z,24.61
2022-09-23T10:20:09.667Z,24.47
2022-09-23T10:21:09.581Z,24.73
2022-09-23T10:22:09.575Z,25.17
2022-09-23T10:23:09.560Z,24.68
2022-09-23T10:24:09.531Z,24.81
2022-09-23T10:25:09.571Z,25.07
2022-09-23T10:26:09.524Z,25.11
2022-09-23T10:27:09.505Z,25.35
2022-09-23T10:28:09.503Z,25.18
2022-09-23T10:29:09.526Z,25.44
2022-09-23T10:30:09.475Z,25.44
2022-09-23T10:31:09.501Z,25.44
2022-09-23T10:32:09.470Z,25.68
2022-09-23T10:33:09.461Z,24.57
2022-09-23T10:34:09.498Z,24.43
2022-09-23T10:35:09.427Z,24.29
2022-09-23T10:36:09.425Z,24.53
2022-09-23T10:37:09.402Z,24.69
2022-09-23T10:38:09.401Z,24.73
2022-09-23T10:39:09.447Z,24.24
2022-09-23T10:40:09.430Z,24.47
2022-09-23T10:42:09.365Z,24.98
2022-09-23T10:43:09.354Z,25.63
2022-09-23T10:44:09.426Z,25.11
2022-09-23T10:45:09.399Z,25.36
2022-09-23T10:46:09.356Z,25.80
2022-09-23T10:47:09.318Z,26.15
2022-09-23T10:48:09.287Z,26.06
2022-09-23T10:49:09.293Z,25.51
2022-09-23T10:50:09.317Z,25.50
2022-09-23T10:51:09.269Z,24.23
2022-09-23T10:52:09.242Z,24.76
2022-09-23T10:53:09.261Z,25.41
2022-09-23T10:54:09.226Z,25.41
2022-09-23T10:55:09.260Z,25.81
2022-09-23T10:56:09.209Z,25.88
2022-09-23T10:57:09.183Z,26.21
2022-09-23T10:58:09.178Z,26.48
2022-09-23T10:59:09.155Z,25.14
2022-09-23T11:00:09.210Z,24.80
2022-09-23T11:01:09.264Z,25.60
2022-09-23T11:02:09.155Z,25.68
2022-09-23T11:03:09.133Z,26.02
2022-09-23T11:04:09.324Z,26.21
2022-09-23T11:05:09.253Z,26.02
2022-09-23T11:06:09.112Z,26.02
2022-09-23T11:07:09.082Z,25.91
2022-09-23T11:08:09.089Z,24.91
2022-09-23T11:09:09.076Z,23.62
2022-09-23T11:10:23.280Z,23.41
2022-09-23T11:11:10.060Z,23.76
2022-09-23T11:12:09.054Z,23.80
2022-09-23T11:13:09.034Z,23.95
2022-09-23T11:14:09.133Z,24.33
2022-09-23T11:15:09.069Z,24.28
2022-09-23T11:16:09.031Z,23.71
2022-09-23T11:17:09.051Z,24.48
2022-09-23T11:18:08.987Z,24.43
2022-09-23T11:19:08.980Z,25.17
2022-09-23T11:20:09.000Z,25.25
2022-09-23T11:21:08.960Z,25.21
2022-09-23T11:22:08.963Z,24.48
2022-09-23T11:23:08.931Z,23.15
2022-09-23T11:24:08.933Z,22.96
2022-09-23T11:25:08.946Z,23.21
2022-09-23T11:26:08.914Z,23.21
2022-09-23T11:27:08.895Z,22.65
2022-09-23T11:28:08.892Z,22.45
2022-09-23T11:29:08.856Z,22.11
2022-09-23T11:30:08.879Z,22.06
2022-09-23T11:31:08.891Z,22.02
2022-09-23T11:32:08.856Z,22.66
2022-09-23T11:33:08.831Z,23.10
2022-09-23T11:34:08.893Z,23.34
2022-09-23T11:35:08.812Z,23.55
2022-09-23T11:36:08.838Z,24.18
2022-09-23T11:37:08.787Z,24.18
2022-09-23T11:38:08.767Z,24.38
2022-09-23T11:39:08.765Z,24.66
2022-09-23T11:40:08.839Z,24.69
2022-09-23T11:41:08.800Z,24.51
2022-09-23T11:42:08.719Z,25.13
2022-09-23T11:43:08.728Z,24.69
2022-09-23T11:44:08.714Z,25.10
2022-09-23T11:45:08.726Z,25.41
2022-09-23T11:46:08.710Z,26.16
2022-09-23T11:47:08.666Z,26.43
2022-09-23T11:48:08.715Z,25.46
2022-09-23T11:49:08.650Z,25.60
2022-09-23T11:50:08.675Z,25.85
2022-09-23T11:51:08.641Z,25.63
2022-09-23T11:52:08.626Z,25.10
2022-09-23T11:53:08.606Z,24.57
2022-09-23T11:54:08.575Z,23.40
2022-09-23T11:55:17.391Z,23.03
2022-09-23T11:56:09.587Z,23.27
2022-09-23T11:57:08.576Z,23.28
2022-09-23T11:58:17.380Z,23.24
2022-09-23T11:59:09.836Z,23.69
2022-09-23T12:00:08.558Z,23.88
2022-09-23T12:01:08.525Z,23.36
2022-09-23T12:02:18.463Z,23.58
2022-09-23T12:03:09.626Z,23.55
2022-09-23T12:04:18.333Z,24.02
2022-09-23T12:05:09.610Z,24.14
2022-09-23T12:06:08.460Z,24.01
2022-09-23T12:07:08.443Z,24.30
2022-09-23T12:08:08.453Z,24.68
2022-09-23T12:09:08.443Z,24.95
2022-09-23T12:10:08.450Z,24.98
2022-09-23T12:11:08.415Z,25.04
2022-09-23T12:12:08.421Z,25.17
2022-09-23T12:13:08.392Z,24.39
2022-09-23T12:14:08.412Z,23.86
2022-09-23T12:15:08.429Z,24.14
2022-09-23T12:16:08.349Z,24.51
2022-09-23T12:17:08.350Z,24.02
2022-09-23T12:18:08.324Z,24.05
2022-09-23T12:19:08.338Z,24.42
2022-09-23T12:20:08.331Z,24.88
2022-09-23T12:21:08.291Z,24.23
2022-09-23T12:22:08.292Z,24.45
2022-09-23T12:23:08.269Z,23.62
2022-09-23T12:24:08.289Z,22.72
2022-09-23T12:25:08.309Z,22.38
2022-09-23T12:26:08.258Z,22.30
2022-09-23T12:27:08.240Z,22.43
2022-09-23T12:28:08.230Z,22.51
2022-09-23T12:29:08.229Z,22.65
2022-09-23T12:30:08.218Z,23.00
2022-09-23T12:31:08.329Z,23.34
2022-09-23T12:32:08.187Z,23.61
2022-09-23T12:33:08.182Z,23.15
2022-09-23T12:34:08.295Z,22.36
2022-09-23T12:35:08.179Z,22.15
2022-09-23T12:36:08.143Z,22.15
2022-09-23T12:37:08.142Z,22.13
2022-09-23T12:38:08.118Z,22.29
2022-09-23T12:39:08.110Z,22.62
2022-09-23T12:40:08.204Z,22.51
2022-09-23T12:41:08.087Z,22.76
2022-09-23T12:42:08.075Z,23.03
2022-09-23T12:43:08.048Z,23.21
2022-09-23T12:44:08.121Z,23.28
2022-09-23T12:45:08.093Z,23.08
2022-09-23T12:46:08.072Z,23.08
2022-09-23T12:47:08.025Z,23.13
2022-09-23T12:48:08.032Z,22.90
2022-09-23T12:49:07.981Z,22.62
2022-09-23T12:50:08.021Z,22.70
2022-09-23T12:51:07.962Z,22.48
2022-09-23T12:52:07.953Z,22.35
2022-09-23T12:53:07.956Z,22.13
2022-09-23T12:54:07.955Z,21.89
2022-09-23T12:55:07.958Z,21.93
2022-09-23T12:56:07.913Z,21.95
2022-09-23T12:57:07.899Z,21.93
2022-09-23T12:58:07.890Z,22.20
2022-09-23T12:59:07.874Z,22.00
2022-09-23T13:00:07.900Z,21.92
2022-09-23T13:01:07.930Z,21.62
2022-09-23T13:02:07.925Z,21.46
2022-09-23T13:03:07.819Z,21.40
2022-09-23T13:04:07.841Z,21.27
2022-09-23T13:05:07.872Z,20.92
2022-09-23T13:06:07.805Z,21.37